createdAt,value
2022-08-05T17:35:20.581Z,97587.41
2022-08-05T17:37:48.499Z,97584.41
2022-08-05T17:40:18.258Z,97592.84
2022-08-05T17:42:51.965Z,97597.50
2022-08-05T17:45:22.462Z,97596.81
2022-08-05T17:47:55.854Z,97604.88
2022-08-05T17:50:30.307Z,97608.22
2022-08-05T17:53:01.963Z,97625.72
2022-08-05T17:55:38.125Z,97631.00
2022-08-05T17:58:13.562Z,97651.69
2022-08-05T18:00:47.640Z,97659.75
2022-08-05T18:03:55.857Z,97665.44
2022-08-05T18:06:15.136Z,97664.13
2022-08-05T18:08:45.508Z,97663.53
2022-08-05T18:11:24.254Z,97677.63
2022-08-05T18:14:00.408Z,97682.00
2022-08-05T18:16:50.982Z,97689.81
2022-08-05T18:19:18.414Z,97697.50
2022-08-05T18:22:08.864Z,97708.56
2022-08-05T18:24:38.078Z,97721.88
2022-08-05T18:27:06.432Z,97727.13
2022-08-05T18:29:41.532Z,97729.78
2022-08-05T18:32:13.021Z,97735.66
2022-08-05T18:34:41.038Z,97741.56
2022-08-05T18:37:12.500Z,97754.56
2022-08-05T18:40:33.595Z,97753.47
2022-08-05T18:42:34.517Z,97773.78
2022-08-05T18:45:04.508Z,97783.75
2022-08-05T18:47:31.971Z,97797.56
2022-08-05T18:50:19.767Z,97801.78
2022-08-05T18:52:50.784Z,97809.81
2022-08-05T18:55:19.045Z,97812.97
2022-08-05T18:57:52.584Z,97817.19
2022-08-05T19:00:25.009Z,97830.50
2022-08-05T19:02:55.747Z,97841.50
2022-08-05T19:06:13.043Z,97847.72
2022-08-05T19:08:13.691Z,97850.38
2022-08-05T19:10:41.999Z,97854.44
2022-08-05T19:13:12.264Z,97846.00
2022-08-05T19:15:57.224Z,97851.75
2022-08-05T19:18:33.515Z,97858.91
2022-08-05T19:21:00.183Z,97867.13
2022-08-05T19:24:06.718Z,97873.16
2022-08-05T19:26:14.703Z,97875.72
2022-08-05T19:28:43.375Z,97879.41
2022-08-05T19:31:13.157Z,97881.13
2022-08-05T19:33:48.675Z,97892.41
2022-08-05T19:36:26.330Z,97899.66
2022-08-05T19:39:00.651Z,97901.94
2022-08-05T19:42:06.351Z,97915.97
2022-08-05T19:44:21.069Z,97919.41
2022-08-05T19:46:51.504Z,97926.94
2022-08-05T19:49:18.504Z,97927.91
2022-08-05T19:52:05.821Z,97937.75
2022-08-05T19:54:34.615Z,97939.75
2022-08-05T19:57:09.340Z,97946.81
2022-08-05T19:59:56.247Z,97949.28
2022-08-05T20:02:29.648Z,97948.06
2022-08-05T20:05:02.474Z,97961.72
2022-08-05T20:07:48.064Z,97975.88
2022-08-05T20:10:17.277Z,97975.56
2022-08-05T20:12:49.209Z,97980.84
2022-08-05T20:15:48.907Z,97981.13
2022-08-05T20:18:10.205Z,97992.66
2022-08-05T20:20:56.928Z,97993.44
2022-08-05T20:23:39.453Z,97990.97
2022-08-05T20:26:17.020Z,97998.03
2022-08-05T20:28:52.818Z,98004.97
2022-08-05T20:31:28.786Z,98008.81
2022-08-05T20:34:10.387Z,98011.94
2022-08-05T20:36:43.273Z,98020.53
2022-08-05T20:39:13.288Z,98019.03
2022-08-05T20:41:48.307Z,98025.81
2022-08-05T20:44:29.803Z,98026.28
2022-08-05T20:47:04.520Z,98028.47
2022-08-05T20:49:39.710Z,98017.47
2022-08-05T20:52:10.656Z,98018.75
2022-08-05T20:54:43.557Z,98022.75
2022-08-05T20:57:43.319Z,98029.50
2022-08-05T21:00:41.381Z,98026.41
2022-08-05T21:03:07.218Z,98029.91
2022-08-05T21:05:48.392Z,98041.97
2022-08-05T21:08:26.860Z,98052.69
2022-08-05T21:10:59.920Z,98059.09
2022-08-05T21:13:48.075Z,98061.88
2022-08-05T21:16:29.391Z,98068.41
2022-08-05T21:19:02.132Z,98068.09
2022-08-05T21:21:39.639Z,98077.16
2022-08-05T21:24:21.088Z,98084.06
2022-08-05T21:26:53.309Z,98099.69
2022-08-05T21:29:31.805Z,98112.66
2022-08-05T21:32:01.244Z,98119.66
2022-08-05T21:34:31.675Z,98128.78
2022-08-05T21:36:59.679Z,98144.28
